WetterOnline ( http://www.wetteronline.de )

Wetter aktuell Malsch

Aktuelles Wetter: Mühlacker (245m)

6-stündlich | Neueste Meldungen
Ortszeit Temperatur Wetter
So, 15.07. 20:00 17.2° C Regen
So, 15.07. 14:00 24.9° C bewölkt
So, 15.07. 8:00 17.9° C wolkig
So, 15.07. 2:00 14.6° C wolkig
Sa, 14.07. 20:00 28.5° C fast wolkenlos
Sa, 14.07. 14:00 28.8° C fast wolkenlos
Sa, 14.07. 8:00 17.4° C wolkenlos
Sa, 14.07. 2:00 15.6° C wolkig
Ortszeit Temperatur Wetter
So, 15.07. 21:30 16.7° C leichter Regen
So, 15.07. 21:20 16.7° C leichter Regen
So, 15.07. 21:10 16.9° C leichter Regen
So, 15.07. 21:00 17.5° C bewölkt
So, 15.07. 20:50 17.5° C bewölkt
So, 15.07. 20:40 17.6° C bewölkt
So, 15.07. 20:30 18.1° C bewölkt
So, 15.07. 20:00 17.2° C Regen
So, 15.07. 19:30 17.3° C leichter Regen
So, 15.07. 19:00 17.5° C leichter Regen
So, 15.07. 18:30 18.3° C leichter Regen
Ortszeit Relative Feuchte Sichtweite
So, 15.07. 20:00 90% 27 km
So, 15.07. 14:00 49% 30 km
So, 15.07. 8:00 73% 21 km
So, 15.07. 2:00 84% 23 km
Sa, 14.07. 20:00 30% 45 km
Sa, 14.07. 14:00 33% 60 km
Sa, 14.07. 8:00 77% 20 km
Sa, 14.07. 2:00 87% 29 km
Ortszeit Relative Feuchte Sichtweite
So, 15.07. 21:30 93% 16 km
So, 15.07. 21:20 93% -
So, 15.07. 21:10 89% -
So, 15.07. 21:00 84% 40 km
So, 15.07. 20:50 84% -
So, 15.07. 20:40 83% -
So, 15.07. 20:30 79% 60 km
So, 15.07. 20:00 90% 27 km
So, 15.07. 19:30 93% 6 km
So, 15.07. 19:00 85% 10 km
So, 15.07. 18:30 77% 35 km
Ortszeit Niederschlagsmenge Niederschlagsart
So, 15.07. 20:00 2 l/m2 in 12 Std. Regen
So, 15.07. 14:00 0.0 l/m2 in 6 Std. -
So, 15.07. 8:00 0.0 l/m2 in 12 Std. -
So, 15.07. 2:00 0.0 l/m2 in 6 Std. -
Sa, 14.07. 20:00 0.0 l/m2 in 12 Std. -
Sa, 14.07. 14:00 0.0 l/m2 in 6 Std. -
Sa, 14.07. 8:00 0.4 l/m2 in 12 Std. -
Sa, 14.07. 2:00 0.4 l/m2 in 6 Std. Regen
Ortszeit Niederschlagsmenge Niederschlagsart
So, 15.07. 21:30 0.1 l/m2 in 1 Std. -
So, 15.07. 21:20 keine Meldung -
So, 15.07. 21:10 keine Meldung -
So, 15.07. 21:00 0.0 l/m2 in 1 Std. -
So, 15.07. 20:50 keine Meldung -
So, 15.07. 20:40 keine Meldung -
So, 15.07. 20:30 0.0 l/m2 in 1 Std. -
So, 15.07. 20:00 1.1 l/m2 in 1 Std. Regen
So, 15.07. 19:30 0.8 l/m2 in 1 Std. -
So, 15.07. 19:00 1.1 l/m2 in 1 Std. Regen
So, 15.07. 18:30 0.1 l/m2 in 1 Std. -
Ortszeit Stärke Spitze Richtung
km/h Bft. km/h Grad Sektor
So, 15.07. 20:00 4 1 40 220° SW
So, 15.07. 14:00 14 3 25 230° SW
So, 15.07. 8:00 4 1 7 250° W
So, 15.07. 2:00 4 1 14 40° NO
Sa, 14.07. 20:00 11 2 25 360° N
Sa, 14.07. 14:00 11 2 25 330° NW
Sa, 14.07. 8:00 0 0 7 - -
Sa, 14.07. 2:00 2 1 15 70° O
Ortszeit Stärke Spitze Richtung
km/h Bft. km/h Grad Sektor
So, 15.07. 21:30 0 0 11 - -
So, 15.07. 21:20 2 1 - 230° SW
So, 15.07. 21:10 4 1 - 240° SW
So, 15.07. 21:00 9 2 39 260° W
So, 15.07. 20:50 9 2 - 260° W
So, 15.07. 20:40 9 2 - 310° NW
So, 15.07. 20:30 11 2 40 320° NW
So, 15.07. 20:00 4 1 14 220° SW
So, 15.07. 19:30 4 1 14 90° O
So, 15.07. 19:00 6 1 24 270° W
So, 15.07. 18:30 17 3 22 350° N
Ortszeit Untergrenze Bedeckung Gattung
total tief tief mittel hoch
So, 15.07. 20:00 2700 m 7/8 4/8 - - -
So, 15.07. 14:00 3600 m 7/8 7/8 - - -
So, 15.07. 8:00 3600 m 6/8 6/8 - - -
So, 15.07. 2:00 7800 m 7/8 0/8 - - -
Sa, 14.07. 20:00 8400 m 2/8 0/8 - - -
Sa, 14.07. 14:00 1800 m 1/8 1/8 - - -
Sa, 14.07. 8:00 - 0/8 0/8 - - -
Sa, 14.07. 2:00 2400 m 6/8 6/8 - - -
Ortszeit Bedeckungsgrad in Achtel und Wolkenuntergrenze
So, 15.07. 21:30 7(2700m)
So, 15.07. 21:20 7(2700m)
So, 15.07. 21:10 7(2700m) 7(3600m)
So, 15.07. 21:00 7(2700m) 8(3600m)
So, 15.07. 20:50 7(2700m) 8(3600m)
So, 15.07. 20:40 7(2700m) 8(3300m)
So, 15.07. 20:30 7(2400m)
So, 15.07. 20:00 4(2700m) 7(4800m) 7(9000m)
So, 15.07. 19:30 1(2100m) 3(3000m) 9(4800m)
So, 15.07. 19:00 1(1380m) 4(2400m) 6(3000m)
So, 15.07. 18:30 1(1500m) 5(2100m) 8(3300m)
Ortszeit Luftdruck NN (hPa) Tendenz (hPa in 3 Std.)
So, 15.07. 20:00 1014 0,0
So, 15.07. 14:00 1015 - 0,7
So, 15.07. 8:00 1016 0,0
So, 15.07. 2:00 1017 + 0,3
Sa, 14.07. 20:00 1015 - 0,9
Sa, 14.07. 14:00 1017 - 1,1
Sa, 14.07. 8:00 1019 - 0,1
Sa, 14.07. 2:00 1019 + 0,3
Ortszeit Luftdruck NN (hPa) Tendenz (hPa in 3 Std.)
So, 15.07. 21:30 1015 - 0,7
So, 15.07. 21:20 1015 keine Meldung
So, 15.07. 21:10 1015 keine Meldung
So, 15.07. 21:00 1015 - 0,1
So, 15.07. 20:50 1015 keine Meldung
So, 15.07. 20:40 1015 keine Meldung
So, 15.07. 20:30 1015 + 0,3
So, 15.07. 20:00 1014 0,0
So, 15.07. 19:30 1015 + 0,6
So, 15.07. 19:00 1016 + 1,5
So, 15.07. 18:30 1016 + 1,3
Ortszeit Schneehöhe (cm)
So, 15.07. 20:00 -
So, 15.07. 14:00 -
So, 15.07. 8:00 -
So, 15.07. 2:00 -
Sa, 14.07. 20:00 -
Sa, 14.07. 14:00 -
Sa, 14.07. 8:00 -
Sa, 14.07. 2:00 -
Ortszeit Schneehöhe (cm)
So, 15.07. 21:30 -
So, 15.07. 21:20 -
So, 15.07. 21:10 -
So, 15.07. 21:00 -
So, 15.07. 20:50 -
So, 15.07. 20:40 -
So, 15.07. 20:30 -
So, 15.07. 20:00 -
So, 15.07. 19:30 -
So, 15.07. 19:00 -
So, 15.07. 18:30 -
Link zu dieser Seite / Seite empfehlen

Das Wetter in ...